Time;durP1;ratioP1;P1;durP2;ratioP2;P2;SDS_P1;SDS_P2;PMS_P1;PMS_P2;Temp;Humidity;BMP_temperature;BMP_pressure;BME280_temperature;BME280_humidity;BME280_pressure;Samples;Min_cycle;Max_cycle;Signal;HPM_P1;HPM_P2
2022/09/17 00:01:42;;;;;;;18.55;2.90;;;;;;;;;;5034782;28;20449;-68
2022/09/17 00:04:10;;;;;;;13.30;3.33;;;;;;;;;;5035171;28;20202;-67
2022/09/17 00:06:38;;;;;;;9.90;3.20;;;;;;;;;;5034830;28;20461;-68
2022/09/17 00:09:07;;;;;;;7.75;2.20;;;;;;;;;;5034255;28;20195;-67
2022/09/17 00:11:38;;;;;;;6.50;2.47;;;;;;;;;;5034131;28;20199;-68
2022/09/17 00:14:06;;;;;;;10.70;2.43;;;;;;;;;;5034971;28;20216;-68
2022/09/17 00:16:34;;;;;;;11.00;2.55;;;;;;;;;;5034694;28;20438;-68
2022/09/17 00:19:02;;;;;;;8.80;2.38;;;;;;;;;;5034363;28;20206;-67
2022/09/17 00:21:29;;;;;;;7.10;2.50;;;;;;;;;;5034697;28;20293;-68
2022/09/17 00:23:57;;;;;;;5.00;1.87;;;;;;;;;;5034338;28;20782;-68
2022/09/17 00:26:28;;;;;;;6.70;2.10;;;;;;;;;;5033959;28;20453;-67
2022/09/17 00:28:56;;;;;;;10.20;2.92;;;;;;;;;;5033869;28;20438;-67
2022/09/17 00:31:24;;;;;;;13.10;3.00;;;;;;;;;;5034223;28;20322;-67
2022/09/17 00:33:51;;;;;;;8.20;2.90;;;;;;;;;;5034002;28;20223;-67
2022/09/17 00:36:19;;;;;;;11.15;2.47;;;;;;;;;;5033769;28;20450;-67
2022/09/17 00:38:48;;;;;;;8.00;2.95;;;;;;;;;;5033653;28;20293;-68
2022/09/17 00:41:16;;;;;;;14.23;2.50;;;;;;;;;;5033752;28;20649;-68
2022/09/17 00:43:45;;;;;;;8.05;2.78;;;;;;;;;;5033907;28;20199;-67
2022/09/17 00:46:27;;;;;;;7.22;2.17;;;;;;;;;;5034348;28;20198;-67
2022/09/17 00:48:54;;;;;;;9.38;2.22;;;;;;;;;;5032277;28;20196;-67
2022/09/17 00:51:23;;;;;;;11.23;3.35;;;;;;;;;;5033899;28;20195;-67
2022/09/17 00:53:50;;;;;;;11.07;2.40;;;;;;;;;;5033639;28;20226;-66
2022/09/17 00:56:22;;;;;;;9.27;2.30;;;;;;;;;;5033736;28;20214;-67
2022/09/17 00:58:51;;;;;;;11.23;4.27;;;;;;;;;;5033589;28;20184;-67
2022/09/17 01:01:18;;;;;;;9.55;3.03;;;;;;;;;;5033284;28;20460;-67
2022/09/17 01:03:45;;;;;;;11.07;3.53;;;;;;;;;;5034123;28;20206;-67
2022/09/17 01:06:16;;;;;;;6.65;3.00;;;;;;;;;;5035676;28;20206;-67
2022/09/17 01:08:48;;;;;;;12.18;2.95;;;;;;;;;;5035890;28;20190;-67
2022/09/17 01:11:31;;;;;;;14.57;3.17;;;;;;;;;;5034538;28;20186;-67
2022/09/17 01:14:06;;;;;;;8.83;2.37;;;;;;;;;;5031081;28;20216;-67
2022/09/17 01:16:36;;;;;;;7.07;2.55;;;;;;;;;;5013768;28;20451;-67
2022/09/17 01:19:08;;;;;;;7.40;2.63;;;;;;;;;;5013617;28;20208;-67
2022/09/17 01:21:50;;;;;;;4.55;2.00;;;;;;;;;;5025437;28;20199;-67
2022/09/17 01:24:36;;;;;;;6.65;2.60;;;;;;;;;;5031851;28;20197;-67
2022/09/17 01:27:24;;;;;;;11.63;2.92;;;;;;;;;;5030014;28;20264;-66
2022/09/17 01:30:00;;;;;;;15.27;2.90;;;;;;;;;;5012188;28;20205;-67
2022/09/17 01:32:32;;;;;;;11.38;2.65;;;;;;;;;;5024273;28;20237;-67
2022/09/17 01:35:02;;;;;;;8.45;2.40;;;;;;;;;;5013841;28;20196;-67
2022/09/17 01:37:32;;;;;;;13.02;2.90;;;;;;;;;;5013599;28;20187;-67
2022/09/17 01:40:03;;;;;;;4.70;2.27;;;;;;;;;;5013285;28;20215;-67
2022/09/17 01:42:33;;;;;;;15.13;2.90;;;;;;;;;;5013518;28;20788;-67
2022/09/17 01:45:03;;;;;;;21.50;3.60;;;;;;;;;;5013933;28;20195;-66
2022/09/17 01:47:35;;;;;;;11.40;3.30;;;;;;;;;;5013764;28;20190;-66
2022/09/17 01:50:04;;;;;;;18.27;2.85;;;;;;;;;;5013509;28;20188;-66
2022/09/17 01:52:33;;;;;;;5.73;1.97;;;;;;;;;;5013314;28;20195;-67
2022/09/17 01:55:02;;;;;;;10.63;3.42;;;;;;;;;;5013448;28;20443;-66
2022/09/17 01:57:32;;;;;;;11.40;2.95;;;;;;;;;;5013523;28;20207;-67
2022/09/17 02:00:01;;;;;;;5.30;2.60;;;;;;;;;;5031512;28;20222;-66
2022/09/17 02:02:30;;;;;;;9.90;3.17;;;;;;;;;;5018342;28;20451;-66
2022/09/17 02:05:01;;;;;;;10.50;2.73;;;;;;;;;;5018041;28;20449;-66
2022/09/17 02:07:30;;;;;;;11.43;2.40;;;;;;;;;;5033257;28;20430;-66
2022/09/17 02:10:00;;;;;;;20.23;2.88;;;;;;;;;;5032676;28;20444;-66
2022/09/17 02:12:31;;;;;;;12.17;2.87;;;;;;;;;;5013334;28;20283;-65
2022/09/17 02:15:01;;;;;;;11.70;2.63;;;;;;;;;;5013356;28;20918;-66
2022/09/17 02:17:31;;;;;;;14.60;3.67;;;;;;;;;;5014284;28;20196;-66
2022/09/17 02:20:00;;;;;;;16.88;3.45;;;;;;;;;;5028000;28;20453;-66
2022/09/17 02:22:30;;;;;;;10.45;3.13;;;;;;;;;;5017278;28;20192;-65
2022/09/17 02:25:02;;;;;;;8.07;2.30;;;;;;;;;;5016981;28;20546;-66
2022/09/17 02:27:35;;;;;;;11.60;2.92;;;;;;;;;;5016569;28;20199;-68
2022/09/17 02:30:02;;;;;;;11.82;3.65;;;;;;;;;;5016371;28;20637;-66
2022/09/17 02:32:29;;;;;;;10.95;3.15;;;;;;;;;;5016798;28;20224;-66
2022/09/17 02:34:57;;;;;;;9.60;3.17;;;;;;;;;;5016510;28;20231;-66
2022/09/17 02:37:27;;;;;;;10.20;2.65;;;;;;;;;;5016574;28;20203;-66
2022/09/17 02:39:54;;;;;;;14.70;3.25;;;;;;;;;;5016230;28;20181;-65
2022/09/17 02:42:23;;;;;;;17.52;3.65;;;;;;;;;;5016237;28;20196;-66
2022/09/17 02:44:58;;;;;;;10.02;3.80;;;;;;;;;;5016350;28;20333;-66
2022/09/17 02:47:34;;;;;;;12.27;3.20;;;;;;;;;;5016676;28;20186;-66
2022/09/17 02:50:17;;;;;;;9.55;2.90;;;;;;;;;;5015999;28;20634;-66
2022/09/17 02:52:55;;;;;;;18.60;3.10;;;;;;;;;;5016096;28;20198;-65
2022/09/17 02:55:28;;;;;;;20.85;3.65;;;;;;;;;;5015931;28;20180;-65
2022/09/17 02:57:59;;;;;;;16.65;2.90;;;;;;;;;;5016412;28;20189;-65
2022/09/17 03:00:27;;;;;;;19.45;2.88;;;;;;;;;;5016088;28;20224;-65
2022/09/17 03:02:58;;;;;;;12.18;2.60;;;;;;;;;;5016232;28;20200;-66
2022/09/17 03:05:26;;;;;;;20.48;4.63;;;;;;;;;;5016109;28;20198;-66
2022/09/17 03:07:57;;;;;;;11.73;3.25;;;;;;;;;;5016027;28;20200;-65
2022/09/17 03:10:24;;;;;;;12.40;3.38;;;;;;;;;;5016130;28;20188;-66
2022/09/17 03:12:52;;;;;;;10.57;2.85;;;;;;;;;;5015919;28;20649;-66
2022/09/17 03:15:19;;;;;;;13.80;3.67;;;;;;;;;;5015542;28;20204;-65
2022/09/17 03:17:46;;;;;;;13.80;4.50;;;;;;;;;;5016364;28;20200;-65
2022/09/17 03:20:14;;;;;;;8.18;2.92;;;;;;;;;;5015738;28;20206;-65
2022/09/17 03:22:44;;;;;;;12.45;3.45;;;;;;;;;;5016075;28;20196;-65
2022/09/17 03:25:13;;;;;;;10.45;3.15;;;;;;;;;;5015654;28;20203;-65
2022/09/17 03:27:40;;;;;;;12.57;2.65;;;;;;;;;;5015188;28;20546;-65
2022/09/17 03:30:07;;;;;;;14.75;3.72;;;;;;;;;;5015097;28;20680;-65
2022/09/17 03:32:35;;;;;;;9.55;2.85;;;;;;;;;;5015721;28;20234;-65
2022/09/17 03:35:02;;;;;;;20.10;5.07;;;;;;;;;;5015383;28;20224;-65
2022/09/17 03:37:30;;;;;;;15.77;3.50;;;;;;;;;;5015645;28;20206;-65
2022/09/17 03:39:57;;;;;;;12.05;3.75;;;;;;;;;;5015047;28;20227;-65
2022/09/17 03:42:25;;;;;;;11.32;5.40;;;;;;;;;;5016134;28;20196;-65
2022/09/17 03:44:52;;;;;;;10.05;3.20;;;;;;;;;;5015183;28;20209;-65
2022/09/17 03:47:20;;;;;;;16.42;3.42;;;;;;;;;;5015407;28;20215;-65
2022/09/17 03:49:51;;;;;;;11.88;3.65;;;;;;;;;;5015243;28;20195;-65
2022/09/17 03:52:18;;;;;;;11.75;3.65;;;;;;;;;;5015180;28;20247;-65
2022/09/17 03:54:45;;;;;;;12.88;3.22;;;;;;;;;;5014743;28;20267;-65
2022/09/17 03:57:12;;;;;;;11.38;3.10;;;;;;;;;;5033337;28;20558;-65
2022/09/17 03:59:41;;;;;;;8.23;3.40;;;;;;;;;;5026370;28;20283;-65
2022/09/17 04:02:08;;;;;;;8.13;3.20;;;;;;;;;;5021663;28;20199;-65
2022/09/17 04:04:35;;;;;;;14.77;3.33;;;;;;;;;;5023438;28;20204;-65
2022/09/17 04:07:02;;;;;;;10.05;2.50;;;;;;;;;;5033155;28;20645;-65
2022/09/17 04:09:30;;;;;;;11.30;3.22;;;;;;;;;;5014809;28;20198;-65
2022/09/17 04:11:57;;;;;;;16.15;2.92;;;;;;;;;;5023305;28;20203;-65
2022/09/17 04:14:24;;;;;;;10.38;2.58;;;;;;;;;;5014629;28;20220;-65
2022/09/17 04:16:53;;;;;;;11.95;2.88;;;;;;;;;;5014633;28;20197;-65
2022/09/17 04:19:20;;;;;;;18.50;2.63;;;;;;;;;;5014483;28;20196;-65
2022/09/17 04:21:47;;;;;;;10.63;3.05;;;;;;;;;;5014471;28;20207;-65
2022/09/17 04:24:14;;;;;;;13.68;2.90;;;;;;;;;;5014894;28;20200;-65
2022/09/17 04:26:42;;;;;;;11.98;2.53;;;;;;;;;;5029515;28;20202;-65
2022/09/17 04:29:09;;;;;;;13.23;2.00;;;;;;;;;;5034174;28;20199;-65
2022/09/17 04:31:39;;;;;;;11.07;2.78;;;;;;;;;;5033800;28;20294;-65
2022/09/17 04:34:08;;;;;;;8.73;2.50;;;;;;;;;;5033696;28;20702;-65
2022/09/17 04:36:35;;;;;;;13.45;3.30;;;;;;;;;;5034044;28;20196;-65
2022/09/17 04:39:02;;;;;;;10.30;2.10;;;;;;;;;;5033886;28;20191;-65
2022/09/17 04:41:29;;;;;;;10.00;2.83;;;;;;;;;;5033157;28;20203;-66
2022/09/17 04:43:56;;;;;;;16.58;3.22;;;;;;;;;;5033989;28;20206;-65
2022/09/17 04:46:23;;;;;;;6.28;3.25;;;;;;;;;;5033481;28;20291;-66
2022/09/17 04:48:51;;;;;;;10.85;2.65;;;;;;;;;;5033511;28;20602;-65
2022/09/17 04:51:21;;;;;;;8.50;2.45;;;;;;;;;;5033221;28;20206;-66
2022/09/17 04:53:48;;;;;;;13.38;3.22;;;;;;;;;;5013778;28;20665;-66
2022/09/17 04:56:15;;;;;;;14.50;2.75;;;;;;;;;;5025685;28;20199;-65
2022/09/17 04:58:42;;;;;;;11.38;3.08;;;;;;;;;;5033740;28;20221;-65
2022/09/17 05:01:10;;;;;;;17.30;3.20;;;;;;;;;;5033097;28;20204;-65
2022/09/17 05:03:37;;;;;;;8.27;3.25;;;;;;;;;;5033602;28;20204;-65
2022/09/17 05:06:04;;;;;;;10.32;2.30;;;;;;;;;;5033414;28;20759;-65
2022/09/17 05:08:33;;;;;;;8.93;2.15;;;;;;;;;;5033578;28;20197;-65
2022/09/17 05:11:00;;;;;;;9.52;2.20;;;;;;;;;;5033459;28;20206;-65
2022/09/17 05:13:29;;;;;;;10.82;2.35;;;;;;;;;;5033605;28;20225;-65
2022/09/17 05:15:56;;;;;;;12.20;2.63;;;;;;;;;;5033175;28;20206;-65
2022/09/17 05:18:24;;;;;;;14.73;2.60;;;;;;;;;;5033204;28;20191;-65
2022/09/17 05:20:51;;;;;;;7.72;1.90;;;;;;;;;;5033440;28;20616;-65
2022/09/17 05:23:19;;;;;;;7.40;2.95;;;;;;;;;;5033416;28;20296;-65
2022/09/17 05:25:51;;;;;;;5.93;2.15;;;;;;;;;;5033207;28;20196;-65
2022/09/17 05:28:18;;;;;;;6.85;2.30;;;;;;;;;;5033123;28;20184;-65
2022/09/17 05:30:46;;;;;;;17.83;3.15;;;;;;;;;;5033077;28;20601;-65
2022/09/17 05:33:13;;;;;;;13.20;2.72;;;;;;;;;;5033236;28;20566;-65
2022/09/17 05:35:42;;;;;;;10.15;2.65;;;;;;;;;;5033588;28;20597;-65
2022/09/17 05:38:10;;;;;;;12.15;2.78;;;;;;;;;;5033040;28;20298;-65
2022/09/17 05:40:37;;;;;;;5.20;2.40;;;;;;;;;;5033014;28;20202;-65
2022/09/17 05:43:07;;;;;;;7.53;2.47;;;;;;;;;;5033066;28;20196;-65
2022/09/17 05:45:36;;;;;;;18.83;3.47;;;;;;;;;;5032881;28;20203;-65
2022/09/17 05:48:04;;;;;;;9.73;2.78;;;;;;;;;;5032649;28;20205;-65
2022/09/17 05:50:31;;;;;;;7.70;2.17;;;;;;;;;;5033215;28;20225;-64
2022/09/17 05:53:04;;;;;;;9.07;2.63;;;;;;;;;;5036559;28;20221;-65
2022/09/17 05:55:31;;;;;;;8.80;2.53;;;;;;;;;;5037230;28;20574;-65
2022/09/17 05:57:58;;;;;;;11.35;2.95;;;;;;;;;;5036658;28;20194;-65
2022/09/17 06:00:27;;;;;;;17.13;2.78;;;;;;;;;;5037358;28;20203;-65
2022/09/17 06:02:56;;;;;;;11.77;3.13;;;;;;;;;;5036799;28;20214;-65
2022/09/17 06:05:24;;;;;;;7.30;2.75;;;;;;;;;;5036910;28;20552;-65
2022/09/17 06:07:51;;;;;;;8.35;2.60;;;;;;;;;;5036357;28;20667;-65
2022/09/17 06:10:19;;;;;;;13.00;2.55;;;;;;;;;;5036836;28;20202;-65
2022/09/17 06:12:46;;;;;;;7.85;2.20;;;;;;;;;;5036446;28;20209;-65
2022/09/17 06:15:13;;;;;;;6.72;2.13;;;;;;;;;;5036660;28;20690;-65
2022/09/17 06:17:42;;;;;;;9.98;2.60;;;;;;;;;;5036765;28;20195;-65
2022/09/17 06:20:10;;;;;;;6.47;3.10;;;;;;;;;;5036291;28;20202;-65
2022/09/17 06:22:37;;;;;;;14.48;3.10;;;;;;;;;;5036209;28;20656;-65
2022/09/17 06:25:05;;;;;;;13.88;2.55;;;;;;;;;;5036284;28;20220;-65
2022/09/17 06:27:32;;;;;;;9.07;2.38;;;;;;;;;;5036790;28;20202;-65
2022/09/17 06:29:59;;;;;;;6.85;2.10;;;;;;;;;;5036175;28;20196;-65
2022/09/17 06:32:27;;;;;;;10.43;2.20;;;;;;;;;;5035933;28;20235;-65
2022/09/17 06:34:56;;;;;;;12.00;2.53;;;;;;;;;;5036628;28;20492;-64
2022/09/17 06:37:27;;;;;;;9.57;2.13;;;;;;;;;;5036337;28;20293;-65
2022/09/17 06:39:54;;;;;;;5.97;2.15;;;;;;;;;;5036878;28;20194;-65
2022/09/17 06:42:22;;;;;;;7.05;2.22;;;;;;;;;;5035978;28;20191;-65
2022/09/17 06:44:49;;;;;;;9.27;2.10;;;;;;;;;;5035969;28;20205;-65
2022/09/17 06:47:16;;;;;;;6.50;1.83;;;;;;;;;;5036387;28;20210;-65
2022/09/17 06:49:43;;;;;;;8.05;2.00;;;;;;;;;;5035868;28;20230;-65
2022/09/17 06:52:12;;;;;;;9.93;2.38;;;;;;;;;;5035741;28;20804;-65
2022/09/17 06:54:39;;;;;;;6.57;2.60;;;;;;;;;;5035985;28;20222;-64
2022/09/17 06:57:09;;;;;;;10.38;2.60;;;;;;;;;;5035972;28;20442;-65
2022/09/17 06:59:37;;;;;;;6.57;2.40;;;;;;;;;;5036248;28;20184;-65
2022/09/17 07:02:04;;;;;;;6.47;2.88;;;;;;;;;;5035582;28;20200;-65
2022/09/17 07:04:31;;;;;;;6.73;2.60;;;;;;;;;;5034593;28;20715;-65
2022/09/17 07:06:58;;;;;;;8.38;2.60;;;;;;;;;;5036392;28;20445;-65
2022/09/17 07:09:27;;;;;;;12.03;2.90;;;;;;;;;;5035738;28;20191;-65
2022/09/17 07:11:54;;;;;;;3.70;2.20;;;;;;;;;;5035422;28;20456;-65
2022/09/17 07:14:23;;;;;;;4.97;2.30;;;;;;;;;;5035703;28;20803;-64
2022/09/17 07:16:50;;;;;;;5.45;2.10;;;;;;;;;;5035397;28;20453;-65
2022/09/17 07:19:20;;;;;;;10.87;3.17;;;;;;;;;;5035668;28;20223;-64
2022/09/17 07:21:48;;;;;;;6.43;1.90;;;;;;;;;;5035781;28;20451;-63
2022/09/17 07:24:16;;;;;;;7.57;1.90;;;;;;;;;;5035474;28;20258;-63
2022/09/17 07:26:44;;;;;;;7.47;1.77;;;;;;;;;;5035991;28;20448;-63
2022/09/17 07:29:12;;;;;;;7.17;1.93;;;;;;;;;;5035339;28;20434;-63
2022/09/17 07:31:39;;;;;;;11.23;2.30;;;;;;;;;;5035379;28;20535;-64
2022/09/17 07:34:07;;;;;;;6.60;2.10;;;;;;;;;;5035427;28;20453;-64
2022/09/17 07:36:34;;;;;;;6.43;1.95;;;;;;;;;;5035266;28;20477;-64
2022/09/17 07:39:01;;;;;;;4.93;2.23;;;;;;;;;;5035208;28;20197;-64
2022/09/17 07:41:28;;;;;;;5.77;2.33;;;;;;;;;;5035164;28;20967;-64
2022/09/17 07:43:57;;;;;;;12.80;2.40;;;;;;;;;;5034835;28;20446;-64
2022/09/17 07:46:25;;;;;;;5.10;2.30;;;;;;;;;;5035175;28;20445;-64
2022/09/17 07:48:52;;;;;;;8.43;2.23;;;;;;;;;;5034771;28;20210;-64
2022/09/17 07:51:20;;;;;;;7.87;4.00;;;;;;;;;;5035110;28;20450;-64
2022/09/17 07:53:49;;;;;;;7.32;2.25;;;;;;;;;;5034664;28;20469;-64
2022/09/17 07:56:16;;;;;;;2.97;1.60;;;;;;;;;;5034751;28;20215;-63
2022/09/17 07:58:43;;;;;;;5.23;2.00;;;;;;;;;;5034758;28;20441;-64
2022/09/17 08:01:14;;;;;;;8.70;1.97;;;;;;;;;;5034968;28;20447;-64
2022/09/17 08:03:42;;;;;;;12.60;2.57;;;;;;;;;;5034501;28;20441;-64
2022/09/17 08:06:10;;;;;;;7.23;2.13;;;;;;;;;;5034479;28;20467;-64
2022/09/17 08:08:38;;;;;;;9.60;2.40;;;;;;;;;;5034415;28;20450;-64
2022/09/17 08:11:06;;;;;;;4.50;1.80;;;;;;;;;;5034685;28;20847;-64
2022/09/17 08:13:34;;;;;;;8.50;2.40;;;;;;;;;;5034763;28;20797;-64
2022/09/17 08:16:01;;;;;;;6.07;3.30;;;;;;;;;;5034869;28;20478;-64
2022/09/17 08:18:30;;;;;;;16.00;3.40;;;;;;;;;;5027913;28;20447;-64
2022/09/17 08:20:58;;;;;;;7.30;2.63;;;;;;;;;;5025488;28;20450;-64
2022/09/17 08:23:26;;;;;;;24.40;2.80;;;;;;;;;;5034694;28;20514;-64
2022/09/17 08:25:53;;;;;;;7.30;2.00;;;;;;;;;;5034698;28;20434;-63
2022/09/17 08:28:21;;;;;;;4.80;2.00;;;;;;;;;;5034549;28;20450;-65
2022/09/17 08:30:49;;;;;;;11.10;2.50;;;;;;;;;;5033955;28;20576;-64
2022/09/17 08:33:16;;;;;;;4.80;1.50;;;;;;;;;;5034166;28;20768;-64
2022/09/17 08:35:51;;;;;;;7.80;2.40;;;;;;;;;;5034375;28;20497;-64
2022/09/17 08:38:18;;;;;;;6.67;2.30;;;;;;;;;;5033893;28;20435;-64
2022/09/17 08:40:56;;;;;;;11.03;2.20;;;;;;;;;;5034045;28;20461;-64
2022/09/17 08:43:24;;;;;;;4.67;2.20;;;;;;;;;;5034386;28;20445;-63
2022/09/17 08:45:53;;;;;;;8.23;1.70;;;;;;;;;;5033862;28;20447;-64
2022/09/17 08:48:20;;;;;;;9.40;2.30;;;;;;;;;;5033714;28;20985;-64
2022/09/17 08:50:50;;;;;;;6.20;2.07;;;;;;;;;;5033814;28;20445;-64
2022/09/17 08:53:23;;;;;;;8.73;2.60;;;;;;;;;;5034393;28;20427;-63
2022/09/17 08:55:52;;;;;;;11.07;2.30;;;;;;;;;;5033883;28;20462;-63
2022/09/17 08:58:27;;;;;;;4.90;1.73;;;;;;;;;;5034252;28;20506;-63
2022/09/17 09:00:58;;;;;;;7.30;3.53;;;;;;;;;;5033439;28;20933;-64
2022/09/17 09:03:33;;;;;;;5.50;2.50;;;;;;;;;;5034360;28;20493;-63
2022/09/17 09:06:02;;;;;;;5.43;2.10;;;;;;;;;;5033735;28;20493;-63
2022/09/17 09:08:31;;;;;;;12.77;2.30;;;;;;;;;;5033243;28;20447;-64
2022/09/17 09:10:59;;;;;;;9.43;1.83;;;;;;;;;;5028048;28;20848;-63
2022/09/17 09:13:29;;;;;;;6.70;2.83;;;;;;;;;;5025926;28;20592;-63
2022/09/17 09:15:59;;;;;;;3.50;1.80;;;;;;;;;;5033332;28;20480;-63
2022/09/17 09:18:29;;;;;;;9.57;1.87;;;;;;;;;;5033940;28;20432;-63
2022/09/17 09:21:04;;;;;;;3.73;1.70;;;;;;;;;;5033404;28;20440;-63
2022/09/17 09:23:36;;;;;;;5.17;1.60;;;;;;;;;;5018956;28;20443;-64
2022/09/17 09:26:08;;;;;;;2.30;1.47;;;;;;;;;;5012513;28;20449;-63
2022/09/17 09:28:40;;;;;;;6.80;1.93;;;;;;;;;;5014076;28;20433;-63
2022/09/17 09:31:16;;;;;;;3.43;1.57;;;;;;;;;;5013567;28;20486;-64
2022/09/17 09:33:44;;;;;;;5.90;2.13;;;;;;;;;;5013380;28;20440;-63
2022/09/17 09:36:14;;;;;;;4.97;1.63;;;;;;;;;;5013485;28;20483;-63
2022/09/17 09:38:44;;;;;;;4.10;1.67;;;;;;;;;;5013300;28;20441;-63
2022/09/17 09:41:13;;;;;;;9.80;3.67;;;;;;;;;;5013173;28;20450;-63
2022/09/17 09:43:42;;;;;;;5.27;1.70;;;;;;;;;;5013576;28;20448;-63
2022/09/17 09:46:18;;;;;;;8.97;1.57;;;;;;;;;;5013497;28;20452;-63
2022/09/17 09:48:48;;;;;;;4.40;1.63;;;;;;;;;;5013672;28;20439;-63
2022/09/17 09:51:20;;;;;;;3.80;1.60;;;;;;;;;;5013519;28;20436;-62
2022/09/17 09:53:55;;;;;;;6.47;2.03;;;;;;;;;;5013502;28;20422;-63
2022/09/17 09:56:33;;;;;;;3.90;1.57;;;;;;;;;;5013471;28;20467;-62
2022/09/17 09:59:01;;;;;;;5.23;2.20;;;;;;;;;;5025977;28;20436;-63
2022/09/17 10:01:30;;;;;;;4.40;1.40;;;;;;;;;;5031768;28;20455;-63
2022/09/17 10:03:57;;;;;;;3.40;1.53;;;;;;;;;;5021853;28;20447;-63
2022/09/17 10:06:25;;;;;;;7.80;1.63;;;;;;;;;;5033019;28;20447;-63
2022/09/17 10:09:13;;;;;;;4.50;1.47;;;;;;;;;;5024793;28;20498;-63
2022/09/17 10:11:41;;;;;;;3.83;1.33;;;;;;;;;;5012634;28;20483;-63
2022/09/17 10:14:15;;;;;;;5.20;1.60;;;;;;;;;;5013404;28;20452;-63
2022/09/17 10:16:42;;;;;;;2.57;1.30;;;;;;;;;;5027605;28;20510;-63
2022/09/17 10:19:14;;;;;;;3.70;1.63;;;;;;;;;;5032578;28;20439;-62
2022/09/17 10:21:42;;;;;;;5.20;1.77;;;;;;;;;;5032328;28;20453;-63
2022/09/17 10:24:15;;;;;;;1.83;1.40;;;;;;;;;;5032950;28;20451;-63
2022/09/17 10:26:43;;;;;;;7.80;1.40;;;;;;;;;;5017407;28;20447;-66
2022/09/17 10:29:13;;;;;;;8.67;2.10;;;;;;;;;;5028212;28;20450;-66
2022/09/17 10:31:47;;;;;;;2.13;1.30;;;;;;;;;;5032123;28;20482;-66
2022/09/17 10:34:20;;;;;;;2.53;1.30;;;;;;;;;;5033201;28;20437;-67
2022/09/17 10:36:49;;;;;;;2.97;1.27;;;;;;;;;;5027501;28;20475;-66
2022/09/17 10:39:27;;;;;;;2.80;1.20;;;;;;;;;;5035013;28;20481;-66
2022/09/17 10:41:55;;;;;;;3.40;1.83;;;;;;;;;;5030353;28;20460;-68
2022/09/17 10:44:23;;;;;;;6.32;1.25;;;;;;;;;;5017643;28;20455;-67
2022/09/17 10:46:51;;;;;;;3.13;1.60;;;;;;;;;;5016440;28;20200;-67
2022/09/17 10:49:23;;;;;;;7.13;1.60;;;;;;;;;;5016552;28;20519;-67
2022/09/17 10:51:50;;;;;;;8.60;1.80;;;;;;;;;;5015889;28;20557;-67
2022/09/17 10:54:45;;;;;;;8.85;2.08;;;;;;;;;;5016026;28;20937;-66
2022/09/17 10:57:18;;;;;;;3.20;1.37;;;;;;;;;;5016348;28;20208;-67
2022/09/17 10:59:52;;;;;;;4.87;1.63;;;;;;;;;;5035947;28;20441;-66
2022/09/17 11:02:33;;;;;;;1.43;1.30;;;;;;;;;;5035916;28;20434;-67
2022/09/17 11:05:02;;;;;;;1.60;1.30;;;;;;;;;;5035943;28;20434;-67
2022/09/17 11:07:34;;;;;;;4.63;1.40;;;;;;;;;;5035531;28;20538;-67
2022/09/17 11:10:10;;;;;;;2.00;1.33;;;;;;;;;;5035580;28;20434;-66
2022/09/17 11:12:41;;;;;;;6.37;1.60;;;;;;;;;;5035769;28;20498;-66
2022/09/17 11:15:15;;;;;;;4.73;1.43;;;;;;;;;;5035559;28;20431;-66
2022/09/17 11:17:53;;;;;;;6.43;1.30;;;;;;;;;;5035547;28;20470;-66
2022/09/17 11:20:29;;;;;;;4.07;1.20;;;;;;;;;;5035766;28;20434;-65
2022/09/17 11:23:02;;;;;;;1.90;1.30;;;;;;;;;;5035593;28;20437;-65
2022/09/17 11:25:39;;;;;;;1.60;1.07;;;;;;;;;;5035691;28;20857;-66
2022/09/17 11:28:14;;;;;;;4.33;1.80;;;;;;;;;;5035845;28;20510;-66
2022/09/17 11:30:49;;;;;;;2.10;1.37;;;;;;;;;;5034531;28;20438;-66
2022/09/17 11:33:22;;;;;;;2.10;1.30;;;;;;;;;;5034991;28;20453;-65
2022/09/17 11:35:50;;;;;;;1.20;1.10;;;;;;;;;;5035480;28;20481;-65
2022/09/17 11:38:21;;;;;;;2.40;1.20;;;;;;;;;;5035326;28;20442;-65
2022/09/17 11:40:51;;;;;;;4.20;1.50;;;;;;;;;;5034828;28;20864;-65
2022/09/17 11:43:25;;;;;;;1.73;1.40;;;;;;;;;;5035606;28;20431;-66
2022/09/17 11:45:57;;;;;;;1.47;0.90;;;;;;;;;;5035387;28;20792;-67
2022/09/17 11:48:29;;;;;;;4.00;1.40;;;;;;;;;;5034869;28;20445;-66
2022/09/17 11:50:59;;;;;;;2.20;1.43;;;;;;;;;;5034699;28;20934;-66
2022/09/17 11:53:29;;;;;;;7.60;1.27;;;;;;;;;;5034993;28;20422;-66
2022/09/17 11:55:59;;;;;;;7.33;1.97;;;;;;;;;;5035333;28;20474;-66
2022/09/17 11:58:29;;;;;;;2.73;1.47;;;;;;;;;;5034898;28;20438;-66
2022/09/17 12:01:01;;;;;;;3.37;1.27;;;;;;;;;;5034745;28;20462;-66
2022/09/17 12:03:32;;;;;;;2.50;1.20;;;;;;;;;;5034729;28;20443;-66
2022/09/17 12:06:02;;;;;;;4.30;1.57;;;;;;;;;;5035006;28;20808;-65
2022/09/17 12:08:33;;;;;;;1.30;1.00;;;;;;;;;;5034757;28;20466;-65
2022/09/17 12:11:07;;;;;;;4.97;1.20;;;;;;;;;;5034608;28;20433;-65
2022/09/17 12:13:35;;;;;;;1.83;1.30;;;;;;;;;;5034343;28;20486;-65
2022/09/17 12:16:12;;;;;;;3.03;1.30;;;;;;;;;;5034462;28;20449;-65
2022/09/17 12:18:51;;;;;;;1.63;1.00;;;;;;;;;;5034771;28;20432;-65
2022/09/17 12:21:20;;;;;;;4.17;1.50;;;;;;;;;;5034144;28;20439;-65
2022/09/17 12:23:49;;;;;;;2.77;1.20;;;;;;;;;;5034647;28;20535;-64
2022/09/17 12:26:23;;;;;;;1.30;1.00;;;;;;;;;;5032749;28;20452;-65
2022/09/17 12:28:53;;;;;;;3.47;1.17;;;;;;;;;;5034198;28;20436;-65
2022/09/17 12:31:24;;;;;;;6.23;1.40;;;;;;;;;;5033634;28;20479;-65
2022/09/17 12:33:55;;;;;;;2.80;1.10;;;;;;;;;;5034691;28;20427;-65
2022/09/17 12:36:31;;;;;;;4.03;1.27;;;;;;;;;;5034378;28;20468;-64
2022/09/17 12:39:20;;;;;;;10.63;1.40;;;;;;;;;;5034422;28;20783;-65
2022/09/17 12:41:53;;;;;;;3.73;1.67;;;;;;;;;;5033727;28;20454;-67
2022/09/17 12:44:28;;;;;;;4.27;1.90;;;;;;;;;;5034233;28;20459;-66
2022/09/17 12:47:01;;;;;;;6.57;1.30;;;;;;;;;;5034172;28;20509;-67
2022/09/17 12:49:35;;;;;;;2.63;1.20;;;;;;;;;;5033991;28;20490;-68
2022/09/17 12:52:04;;;;;;;2.58;1.90;;;;;;;;;;5034243;28;20454;-67
2022/09/17 12:54:40;;;;;;;2.97;1.48;;;;;;;;;;5033822;28;20205;-68
2022/09/17 12:57:13;;;;;;;1.77;1.20;;;;;;;;;;5033710;28;20225;-68
2022/09/17 12:59:46;;;;;;;1.20;1.10;;;;;;;;;;5033811;28;20444;-67
2022/09/17 13:02:16;;;;;;;1.23;1.10;;;;;;;;;;5032659;28;20626;-69
2022/09/17 13:05:03;;;;;;;7.87;1.83;;;;;;;;;;5034165;28;20448;-68
2022/09/17 13:08:03;;;;;;;2.13;1.10;;;;;;;;;;5033528;28;20438;-68
2022/09/17 13:10:39;;;;;;;2.87;1.20;;;;;;;;;;5033329;28;20432;-67
2022/09/17 13:13:17;;;;;;;4.53;1.10;;;;;;;;;;5033271;28;20915;-68
2022/09/17 13:15:47;;;;;;;3.70;1.00;;;;;;;;;;5034123;28;20437;-68
2022/09/17 13:18:18;;;;;;;1.20;1.10;;;;;;;;;;5033027;28;20474;-68
2022/09/17 13:20:52;;;;;;;3.47;1.57;;;;;;;;;;5033205;28;20449;-68
2022/09/17 13:23:29;;;;;;;4.00;2.33;;;;;;;;;;5033253;28;20430;-68
2022/09/17 13:25:59;;;;;;;5.37;1.27;;;;;;;;;;5033044;28;20434;-68
2022/09/17 13:28:36;;;;;;;2.63;1.27;;;;;;;;;;5032967;28;20461;-67
2022/09/17 13:31:04;;;;;;;3.77;1.20;;;;;;;;;;5032998;28;20474;-68
2022/09/17 13:33:50;;;;;;;3.90;1.20;;;;;;;;;;5033113;28;20455;-68
2022/09/17 13:36:36;;;;;;;2.70;1.50;;;;;;;;;;5033118;28;20446;-67
2022/09/17 13:39:04;;;;;;;4.93;1.50;;;;;;;;;;5033197;28;20473;-68
2022/09/17 13:41:34;;;;;;;4.03;1.20;;;;;;;;;;5032812;28;20446;-68
2022/09/17 13:44:03;;;;;;;3.93;1.20;;;;;;;;;;5032796;28;20456;-69
2022/09/17 13:46:33;;;;;;;3.43;1.20;;;;;;;;;;5033118;28;20564;-68
2022/09/17 13:49:01;;;;;;;4.07;1.02;;;;;;;;;;5033259;28;20623;-69
2022/09/17 13:51:58;;;;;;;5.60;1.45;;;;;;;;;;5032968;28;20195;-69
2022/09/17 13:54:37;;;;;;;10.85;2.65;;;;;;;;;;5027388;28;20191;-69
2022/09/17 13:57:12;;;;;;;4.70;2.08;;;;;;;;;;5027168;28;20218;-69
2022/09/17 13:59:53;;;;;;;5.00;1.83;;;;;;;;;;5031571;28;20205;-69
2022/09/17 14:02:30;;;;;;;1.90;1.60;;;;;;;;;;5031810;28;20195;-68
2022/09/17 14:05:19;;;;;;;5.83;1.20;;;;;;;;;;5031280;28;20432;-68
2022/09/17 14:07:47;;;;;;;3.63;1.40;;;;;;;;;;5031282;28;20450;-68
2022/09/17 14:10:36;;;;;;;2.90;1.33;;;;;;;;;;5031578;28;20951;-68
2022/09/17 14:13:36;;;;;;;4.53;1.33;;;;;;;;;;5029584;28;20450;-67
2022/09/17 14:16:24;;;;;;;3.10;1.63;;;;;;;;;;4974623;28;20453;-68
2022/09/17 14:18:58;;;;;;;8.63;1.50;;;;;;;;;;4974343;28;20914;-68
2022/09/17 14:21:30;;;;;;;3.57;1.60;;;;;;;;;;5013376;28;20444;-68
2022/09/17 14:23:59;;;;;;;2.40;1.30;;;;;;;;;;5036591;28;20454;-68
2022/09/17 14:26:30;;;;;;;4.07;1.30;;;;;;;;;;5036521;28;20448;-68
2022/09/17 14:29:02;;;;;;;7.10;1.40;;;;;;;;;;5036645;28;20426;-68
2022/09/17 14:31:34;;;;;;;2.20;1.40;;;;;;;;;;5036279;28;20986;-68
2022/09/17 14:34:03;;;;;;;6.33;1.93;;;;;;;;;;5036932;28;20434;-68
2022/09/17 14:36:36;;;;;;;2.77;1.40;;;;;;;;;;5036039;28;20446;-68
2022/09/17 14:39:03;;;;;;;3.10;1.43;;;;;;;;;;5036770;28;20430;-69
2022/09/17 14:41:34;;;;;;;2.63;1.27;;;;;;;;;;5036402;28;20438;-67
2022/09/17 14:44:02;;;;;;;3.80;1.23;;;;;;;;;;5036677;28;20434;-67
2022/09/17 14:46:32;;;;;;;2.70;1.60;;;;;;;;;;5036169;28;20958;-68
2022/09/17 14:49:14;;;;;;;4.17;1.50;;;;;;;;;;5036110;28;20451;-68
2022/09/17 14:51:41;;;;;;;2.13;1.60;;;;;;;;;;5036314;28;20424;-68
2022/09/17 14:54:13;;;;;;;2.70;1.50;;;;;;;;;;5035784;28;20459;-67
2022/09/17 14:56:45;;;;;;;3.00;1.60;;;;;;;;;;5035790;28;20462;-67
2022/09/17 14:59:18;;;;;;;2.37;1.50;;;;;;;;;;5036151;28;20445;-67